Time;durP1;ratioP1;P1;durP2;ratioP2;P2;SDS_P1;SDS_P2;PMS_P1;PMS_P2;Temp;Humidity;BMP_temperature;BMP_pressure;BME280_temperature;BME280_humidity;BME280_pressure;Samples;Min_cycle;Max_cycle;Signal;HPM_P1;HPM_P2
2022/04/14 00:00:36;;;;;;;72.10;39.20;;;5.20;99.90;;;;;;5090889;28;20044;-77
2022/04/14 00:03:04;;;;;;;71.03;37.95;;;5.20;99.90;;;;;;5095989;28;20072;-76
2022/04/14 00:05:32;;;;;;;74.10;39.00;;;5.20;99.90;;;;;;5095418;28;20071;-77
2022/04/14 00:07:59;;;;;;;73.20;40.60;;;5.00;99.90;;;;;;5078745;28;20050;-79
2022/04/14 00:10:27;;;;;;;66.32;37.28;;;5.00;99.90;;;;;;5077926;28;20460;-78
2022/04/14 00:12:55;;;;;;;84.18;44.53;;;5.00;99.90;;;;;;5074771;28;20044;-78
2022/04/14 00:15:23;;;;;;;88.00;43.90;;;4.90;99.90;;;;;;5074458;28;20036;-76
2022/04/14 00:17:50;;;;;;;92.82;45.00;;;4.90;99.90;;;;;;5075148;28;20071;-77
2022/04/14 00:20:18;;;;;;;72.75;37.67;;;4.90;99.90;;;;;;5074939;28;20059;-79
2022/04/14 00:22:46;;;;;;;98.18;47.83;;;4.80;99.90;;;;;;5076008;28;20048;-78
2022/04/14 00:25:13;;;;;;;97.07;46.40;;;4.70;99.90;;;;;;5079881;28;20033;-78
2022/04/14 00:27:40;;;;;;;76.93;38.42;;;4.60;99.90;;;;;;5079771;28;20051;-79
2022/04/14 00:30:12;;;;;;;74.65;39.90;;;4.60;99.90;;;;;;5078358;28;20055;-78
2022/04/14 00:32:40;;;;;;;73.38;38.60;;;4.60;99.90;;;;;;5078187;28;20423;-78
2022/04/14 00:35:08;;;;;;;67.85;34.17;;;4.70;99.90;;;;;;5079054;28;20446;-78
2022/04/14 00:37:36;;;;;;;68.75;33.42;;;4.70;99.90;;;;;;5079472;28;20040;-78
2022/04/14 00:40:05;;;;;;;62.38;31.52;;;4.70;99.90;;;;;;5078706;28;20091;-78
2022/04/14 00:42:32;;;;;;;57.75;29.30;;;4.60;99.90;;;;;;5077293;28;20113;-78
2022/04/14 00:45:00;;;;;;;48.72;25.60;;;4.60;99.90;;;;;;5077242;28;20044;-78
2022/04/14 00:47:30;;;;;;;48.53;23.95;;;4.60;99.90;;;;;;5078028;28;20048;-78
2022/04/14 00:49:58;;;;;;;54.72;26.25;;;4.50;99.90;;;;;;5079541;28;20050;-78
2022/04/14 00:52:27;;;;;;;66.05;31.38;;;4.50;99.90;;;;;;5081124;28;20384;-78
2022/04/14 00:54:54;;;;;;;62.05;30.50;;;4.50;99.90;;;;;;5082606;28;20047;-78
2022/04/14 00:57:22;;;;;;;55.42;26.90;;;4.40;99.90;;;;;;5079624;28;20059;-77
2022/04/14 00:59:49;;;;;;;47.58;25.05;;;4.40;99.90;;;;;;5079212;28;20119;-77
2022/04/14 01:02:17;;;;;;;56.95;28.00;;;4.40;99.90;;;;;;5077583;28;20086;-78
2022/04/14 01:04:46;;;;;;;58.53;29.95;;;4.30;99.90;;;;;;5077886;28;20041;-77
2022/04/14 01:07:14;;;;;;;56.75;30.15;;;4.30;99.90;;;;;;5080622;28;20503;-78
2022/04/14 01:09:41;;;;;;;57.22;30.63;;;4.20;99.90;;;;;;5082143;28;20488;-78
2022/04/14 01:12:11;;;;;;;55.85;28.33;;;4.20;99.90;;;;;;5082527;28;20052;-78
2022/04/14 01:14:39;;;;;;;49.95;26.33;;;4.10;1.00;;;;;;5079427;28;20483;-77
2022/04/14 01:17:09;;;;;;;41.13;23.30;;;4.10;1.00;;;;;;5078183;28;20045;-78
2022/04/14 01:19:37;;;;;;;49.33;25.55;;;4.20;1.00;;;;;;5078072;28;20044;-78
2022/04/14 01:22:09;;;;;;;49.40;26.52;;;4.10;1.00;;;;;;5077170;28;20044;-77
2022/04/14 01:24:38;;;;;;;56.58;27.02;;;4.10;1.00;;;;;;5076100;28;20041;-77
2022/04/14 01:27:06;;;;;;;55.35;28.88;;;4.10;1.00;;;;;;5075334;28;20071;-78
2022/04/14 01:29:34;;;;;;;54.63;28.38;;;4.00;1.00;;;;;;5076269;28;20418;-78
2022/04/14 01:32:02;;;;;;;56.92;27.45;;;4.00;1.00;;;;;;5075749;28;20501;-77
2022/04/14 01:34:30;;;;;;;57.03;31.05;;;4.00;1.00;;;;;;5074065;28;20033;-77
2022/04/14 01:36:58;;;;;;;57.20;30.58;;;3.90;1.00;;;;;;5075724;28;20468;-76
2022/04/14 01:39:27;;;;;;;55.08;28.65;;;3.90;1.00;;;;;;5075980;28;20047;-77
2022/04/14 01:41:55;;;;;;;53.58;30.40;;;3.90;1.00;;;;;;5075539;28;20538;-77
2022/04/14 01:44:23;;;;;;;58.88;32.28;;;4.00;1.00;;;;;;5075435;28;20051;-77
2022/04/14 01:46:51;;;;;;;52.10;28.95;;;3.90;1.00;;;;;;5075415;28;20428;-77
2022/04/14 01:49:18;;;;;;;48.67;28.02;;;3.80;1.00;;;;;;5075811;28;20044;-77
2022/04/14 01:51:48;;;;;;;46.88;26.92;;;3.80;1.00;;;;;;5074684;28;20043;-77
2022/04/14 01:54:15;;;;;;;45.25;24.35;;;3.80;1.00;;;;;;5075296;28;20037;-77
2022/04/14 01:56:44;;;;;;;39.08;22.52;;;3.80;1.00;;;;;;5076883;28;20049;-78
2022/04/14 01:59:14;;;;;;;39.92;22.17;;;3.80;1.00;;;;;;5077469;28;20051;-79
2022/04/14 02:01:41;;;;;;;39.78;22.00;;;3.70;1.00;;;;;;5075837;28;20041;-77
2022/04/14 02:04:09;;;;;;;35.85;21.13;;;3.60;1.00;;;;;;5077288;28;20057;-78
2022/04/14 02:06:37;;;;;;;40.33;23.08;;;3.60;1.00;;;;;;5076794;28;20052;-78
2022/04/14 02:09:04;;;;;;;36.65;20.95;;;3.60;1.00;;;;;;5076409;28;20042;-77
2022/04/14 02:11:32;;;;;;;35.25;20.27;;;3.60;1.00;;;;;;5074867;28;20045;-78
2022/04/14 02:13:59;;;;;;;38.20;20.50;;;3.60;1.00;;;;;;5075353;28;20143;-77
2022/04/14 02:16:28;;;;;;;40.60;22.77;;;3.60;1.00;;;;;;5075765;28;20053;-77
2022/04/14 02:18:56;;;;;;;36.22;19.20;;;3.60;1.00;;;;;;5073836;28;20372;-77
2022/04/14 02:21:24;;;;;;;28.50;16.55;;;3.60;1.00;;;;;;5075914;28;20132;-78
2022/04/14 02:23:51;;;;;;;33.67;18.40;;;3.60;1.00;;;;;;5074720;28;20130;-79
2022/04/14 02:26:19;;;;;;;26.23;15.85;;;3.60;1.00;;;;;;5076298;28;20036;-78
2022/04/14 02:28:47;;;;;;;37.10;17.75;;;3.50;1.00;;;;;;5076538;28;20101;-78
2022/04/14 02:31:14;;;;;;;34.20;19.50;;;3.40;1.00;;;;;;5075145;28;20049;-78
2022/04/14 02:33:43;;;;;;;33.03;19.45;;;3.40;1.00;;;;;;5075802;28;20048;-78
2022/04/14 02:36:11;;;;;;;37.72;21.38;;;3.40;1.00;;;;;;5076277;28;20380;-78
2022/04/14 02:38:38;;;;;;;35.55;21.23;;;3.30;1.00;;;;;;5076043;28;20399;-77
2022/04/14 02:41:06;;;;;;;36.80;21.10;;;3.30;1.00;;;;;;5075320;28;20048;-77
2022/04/14 02:43:38;;;;;;;37.35;21.67;;;3.10;1.00;;;;;;5073896;28;20146;-78
2022/04/14 02:46:06;;;;;;;42.80;23.15;;;3.20;1.00;;;;;;5075077;28;20097;-78
2022/04/14 02:48:33;;;;;;;45.03;26.80;;;3.20;1.00;;;;;;5075301;28;20533;-77
2022/04/14 02:51:02;;;;;;;51.22;28.88;;;3.10;1.00;;;;;;5074470;28;20071;-77
2022/04/14 02:53:30;;;;;;;48.30;30.55;;;3.10;1.00;;;;;;5074823;28;20037;-77
2022/04/14 02:55:57;;;;;;;48.50;28.85;;;3.10;1.00;;;;;;5075250;28;20353;-77
2022/04/14 02:58:25;;;;;;;46.80;27.63;;;3.10;1.00;;;;;;5073417;28;20044;-77
2022/04/14 03:00:52;;;;;;;39.17;23.08;;;3.10;1.00;;;;;;5073514;28;20080;-77
2022/04/14 03:03:23;;;;;;;36.17;20.48;;;3.10;1.00;;;;;;5075047;28;20044;-77
2022/04/14 03:05:51;;;;;;;38.47;21.90;;;3.10;1.00;;;;;;5075214;28;20036;-77
2022/04/14 03:08:20;;;;;;;37.13;18.95;;;3.00;1.00;;;;;;5074460;28;20050;-77
2022/04/14 03:10:48;;;;;;;29.27;17.25;;;3.10;1.00;;;;;;5073206;28;20110;-77
2022/04/14 03:13:16;;;;;;;30.95;18.65;;;3.00;1.00;;;;;;5074018;28;20123;-77
2022/04/14 03:15:44;;;;;;;34.35;18.65;;;3.00;1.00;;;;;;5074474;28;20044;-77
2022/04/14 03:18:11;;;;;;;38.88;20.13;;;3.00;1.00;;;;;;5074032;28;20053;-77
2022/04/14 03:20:39;;;;;;;35.63;18.75;;;3.00;1.00;;;;;;5074536;28;20046;-77
2022/04/14 03:23:07;;;;;;;37.25;21.35;;;3.00;1.00;;;;;;5072791;28;20118;-78
2022/04/14 03:25:36;;;;;;;34.70;20.73;;;2.90;1.00;;;;;;5074371;28;20041;-77
2022/04/14 03:28:03;;;;;;;38.72;21.40;;;2.90;1.00;;;;;;5075064;28;20613;-77
2022/04/14 03:30:31;;;;;;;39.30;22.00;;;2.90;1.00;;;;;;5074648;28;20490;-78
2022/04/14 03:32:58;;;;;;;42.00;23.67;;;2.80;1.00;;;;;;5073552;28;20053;-77
2022/04/14 03:35:26;;;;;;;38.33;22.25;;;2.80;1.00;;;;;;5072388;28;20403;-77
2022/04/14 03:37:53;;;;;;;37.75;22.83;;;2.80;1.00;;;;;;5072296;28;20060;-77
2022/04/14 03:40:21;;;;;;;44.08;24.25;;;2.80;1.00;;;;;;5074274;28;20041;-78
2022/04/14 03:42:50;;;;;;;47.80;26.65;;;2.80;1.00;;;;;;5073466;28;20048;-77
2022/04/14 03:45:17;;;;;;;43.70;24.48;;;2.80;1.00;;;;;;5074134;28;20040;-77
2022/04/14 03:47:44;;;;;;;49.47;29.92;;;2.80;1.00;;;;;;5072162;28;20056;-77
2022/04/14 03:50:13;;;;;;;55.83;34.75;;;2.70;1.00;;;;;;5072679;28;20048;-77
2022/04/14 03:52:40;;;;;;;53.38;33.35;;;2.70;1.00;;;;;;5072856;28;20055;-77
2022/04/14 03:55:09;;;;;;;53.78;32.97;;;2.70;1.00;;;;;;5071656;28;20041;-77
2022/04/14 03:57:37;;;;;;;48.22;27.80;;;2.70;1.00;;;;;;5071917;28;20056;-77
2022/04/14 04:00:08;;;;;;;43.17;25.17;;;2.70;1.00;;;;;;5072968;28;20048;-77
2022/04/14 04:02:36;;;;;;;39.78;24.52;;;2.70;1.00;;;;;;5051628;28;20045;-76
2022/04/14 04:05:04;;;;;;;42.40;21.80;;;2.70;1.00;;;;;;5070772;28;20048;-76
2022/04/14 04:07:32;;;;;;;43.67;22.13;;;2.60;1.00;;;;;;5072070;28;20544;-77
2022/04/14 04:09:59;;;;;;;50.78;25.08;;;2.70;1.00;;;;;;5072055;28;20039;-77
2022/04/14 04:12:26;;;;;;;57.70;27.92;;;2.70;1.00;;;;;;5073394;28;20091;-78
2022/04/14 04:14:54;;;;;;;44.65;23.83;;;2.70;1.00;;;;;;5072424;28;20451;-76
2022/04/14 04:17:23;;;;;;;46.70;25.00;;;2.70;1.00;;;;;;5071968;28;20494;-76
2022/04/14 04:19:51;;;;;;;48.92;24.85;;;2.80;1.00;;;;;;5072916;28;20041;-76
2022/04/14 04:22:18;;;;;;;39.53;23.73;;;2.80;1.00;;;;;;5073064;28;20075;-77
2022/04/14 04:24:46;;;;;;;56.28;30.52;;;2.80;1.00;;;;;;5073958;28;20040;-76
2022/04/14 04:27:13;;;;;;;44.30;25.20;;;2.90;1.00;;;;;;5074391;28;20491;-78
2022/04/14 04:29:41;;;;;;;52.10;26.05;;;2.90;1.00;;;;;;5072761;28;20139;-77
2022/04/14 04:32:09;;;;;;;63.20;31.02;;;2.90;1.00;;;;;;5073976;28;20032;-81
2022/04/14 04:34:38;;;;;;;72.28;36.13;;;3.00;1.00;;;;;;5074631;28;20135;-81
2022/04/14 04:37:06;;;;;;;48.75;28.70;;;3.00;1.00;;;;;;5075183;28;20037;-79
2022/04/14 04:39:34;;;;;;;45.08;26.92;;;3.20;1.00;;;;;;5075704;28;20048;-80
2022/04/14 04:42:01;;;;;;;41.25;23.33;;;3.30;1.00;;;;;;5078841;28;20483;-80
2022/04/14 04:44:29;;;;;;;40.92;21.70;;;3.40;1.00;;;;;;5079220;28;20071;-80
2022/04/14 04:46:56;;;;;;;44.45;23.02;;;3.50;1.00;;;;;;5078737;28;20037;-80
2022/04/14 04:49:24;;;;;;;36.75;20.73;;;3.70;1.00;;;;;;5076616;28;20051;-80
2022/04/14 04:51:53;;;;;;;38.20;20.70;;;3.80;1.00;;;;;;5075247;28;20048;-80
2022/04/14 04:54:20;;;;;;;39.22;20.13;;;3.90;1.00;;;;;;5078302;28;20091;-81
2022/04/14 04:56:47;;;;;;;44.10;21.40;;;4.00;1.00;;;;;;5077792;28;20044;-81
2022/04/14 04:59:15;;;;;;;43.92;23.45;;;4.10;1.00;;;;;;5079182;28;20071;-80
2022/04/14 05:01:42;;;;;;;43.05;21.75;;;4.30;1.00;;;;;;5078160;28;20052;-80
2022/04/14 05:04:11;;;;;;;39.10;20.23;;;4.50;1.00;;;;;;5078803;28;20057;-80
2022/04/14 05:06:38;;;;;;;35.47;20.05;;;4.60;99.90;;;;;;5080800;28;20044;-80
2022/04/14 05:09:07;;;;;;;38.17;21.13;;;4.60;99.90;;;;;;5078730;28;20042;-77
2022/04/14 05:11:35;;;;;;;42.20;20.30;;;4.70;99.90;;;;;;5083631;28;20054;-80
2022/04/14 05:14:03;;;;;;;40.75;20.33;;;4.90;99.90;;;;;;5088112;28;20511;-80
2022/04/14 05:16:30;;;;;;;40.20;20.85;;;4.80;99.90;;;;;;5087659;28;20037;-79
2022/04/14 05:18:58;;;;;;;41.33;21.15;;;5.10;99.90;;;;;;5087748;28;20119;-82
2022/04/14 05:21:25;;;;;;;45.08;20.63;;;5.20;99.90;;;;;;5086138;28;20511;-83
2022/04/14 05:23:52;;;;;;;38.45;22.88;;;5.30;99.90;;;;;;5085433;28;20040;-84
2022/04/14 05:26:28;;;;;;;40.42;24.48;;;5.20;99.90;;;;;;5080469;28;20760;-83
2022/04/14 05:29:03;;;;;;;48.30;24.55;;;5.20;99.90;;;;;;5083607;28;20041;-82
2022/04/14 05:31:30;;;;;;;37.15;22.05;;;5.30;99.90;;;;;;5080663;28;20060;-79
2022/04/14 05:33:57;;;;;;;44.40;24.58;;;5.30;99.90;;;;;;5077701;28;20040;-82
2022/04/14 05:36:25;;;;;;;41.33;23.08;;;5.50;99.90;;;;;;5084244;28;20050;-81
2022/04/14 05:38:53;;;;;;;44.25;24.35;;;5.70;99.90;;;;;;5083655;28;20044;-81
2022/04/14 05:41:20;;;;;;;51.85;26.42;;;6.00;99.90;;;;;;5082624;28;20045;-80
2022/04/14 05:43:49;;;;;;;50.33;25.73;;;6.30;99.90;;;;;;5080094;28;20147;-83
2022/04/14 05:46:16;;;;;;;52.70;27.90;;;6.40;72.80;;;;;;5080919;28;20064;-82
2022/04/14 05:48:47;;;;;;;47.97;27.40;;;6.40;48.90;;;;;;5081906;28;20052;-83
2022/04/14 05:51:14;;;;;;;44.17;24.27;;;6.50;26.30;;;;;;5080878;28;20059;-82
2022/04/14 05:53:42;;;;;;;35.58;21.90;;;6.50;20.40;;;;;;5080988;28;20037;-80
2022/04/14 05:56:10;;;;;;;38.28;21.17;;;6.60;4.70;;;;;;5085883;28;20041;-81
2022/04/14 05:58:37;;;;;;;41.20;23.92;;;6.70;1.00;;;;;;5084756;28;20066;-82
2022/04/14 06:01:06;;;;;;;38.00;21.15;;;6.80;1.00;;;;;;5083754;28;20062;-81
2022/04/14 06:03:33;;;;;;;34.95;20.58;;;7.00;1.00;;;;;;5086813;28;20450;-81
2022/04/14 06:06:01;;;;;;;33.08;17.08;;;7.10;1.00;;;;;;5086801;28;20040;-80
2022/04/14 06:08:29;;;;;;;28.05;17.13;;;7.10;1.00;;;;;;5087566;28;20040;-81
2022/04/14 06:10:56;;;;;;;45.17;22.20;;;7.40;1.00;;;;;;5083686;28;20049;-82
2022/04/14 06:13:24;;;;;;;50.65;28.77;;;7.70;1.00;;;;;;5089784;28;20066;-82
2022/04/14 06:15:51;;;;;;;60.10;28.65;;;7.80;1.00;;;;;;5097331;28;20056;-80
2022/04/14 06:18:21;;;;;;;64.60;36.65;;;7.70;1.00;;;;;;5098253;28;20074;-79
2022/04/14 06:20:54;;;;;;;57.22;33.22;;;7.80;1.00;;;;;;5097290;28;20052;-79
2022/04/14 06:23:21;;;;;;;57.38;30.83;;;8.00;1.00;;;;;;5097274;28;20101;-79
2022/04/14 06:25:54;;;;;;;60.05;32.35;;;8.20;1.00;;;;;;5087066;28;20048;-81
2022/04/14 06:28:21;;;;;;;57.92;32.60;;;8.60;1.00;;;;;;5083308;28;20044;-80
2022/04/14 06:30:50;;;;;;;56.10;32.05;;;9.00;1.00;;;;;;5084030;28;20044;-83
2022/04/14 06:33:19;;;;;;;51.40;30.02;;;9.20;1.00;;;;;;5089976;28;20086;-84
2022/04/14 06:35:48;;;;;;;58.95;31.35;;;9.30;1.00;;;;;;5088609;28;20037;-84
2022/04/14 06:38:15;;;;;;;53.70;31.45;;;9.30;1.00;;;;;;5094321;28;20052;-82
2022/04/14 06:40:43;;;;;;;53.08;29.63;;;9.50;1.00;;;;;;5094547;28;20041;-81
2022/04/14 06:43:10;;;;;;;40.65;23.92;;;9.80;1.00;;;;;;5095675;28;20056;-81
2022/04/14 06:45:37;;;;;;;45.88;25.70;;;10.20;1.00;;;;;;5096559;28;20467;-81
2022/04/14 06:48:07;;;;;;;43.88;25.15;;;10.40;1.00;;;;;;5096389;28;20052;-81
2022/04/14 06:50:35;;;;;;;43.08;23.90;;;10.90;1.00;;;;;;5097568;28;20064;-80
2022/04/14 06:53:03;;;;;;;42.17;22.90;;;11.30;1.00;;;;;;5096860;28;20045;-80
2022/04/14 06:55:32;;;;;;;34.78;20.55;;;11.60;1.00;;;;;;5091836;28;20094;-80
2022/04/14 06:57:59;;;;;;;38.78;21.30;;;12.10;1.00;;;;;;5088525;28;20045;-81
2022/04/14 07:00:27;;;;;;;39.88;20.95;;;12.50;1.00;;;;;;5085071;28;20104;-81
2022/04/14 07:02:56;;;;;;;38.40;21.98;;;12.80;1.00;;;;;;5085899;28;20127;-81
2022/04/14 07:05:24;;;;;;;43.35;22.88;;;12.80;1.00;;;;;;5084752;28;20083;-81
2022/04/14 07:07:52;;;;;;;49.22;25.00;;;12.90;1.00;;;;;;5087373;28;20040;-81
2022/04/14 07:10:21;;;;;;;47.13;23.88;;;13.00;1.00;;;;;;5088055;28;20055;-82
2022/04/14 07:12:48;;;;;;;46.13;24.35;;;13.00;1.00;;;;;;5092054;28;20063;-82
2022/04/14 07:15:16;;;;;;;34.08;20.00;;;13.10;1.00;;;;;;5090805;28;20047;-81
2022/04/14 07:17:44;;;;;;;34.00;18.48;;;13.10;1.00;;;;;;5088585;28;20115;-82
2022/04/14 07:20:14;;;;;;;36.85;19.02;;;13.00;1.00;;;;;;5089195;28;20041;-84
2022/04/14 07:22:49;;;;;;;31.52;16.77;;;13.10;1.00;;;;;;5090629;28;20028;-83
2022/04/14 07:25:17;;;;;;;33.40;16.60;;;13.10;1.00;;;;;;5095301;28;20029;-83
2022/04/14 07:27:45;;;;;;;26.95;14.70;;;12.90;1.00;;;;;;5097755;28;20045;-84
2022/04/14 07:30:13;;;;;;;37.10;17.23;;;13.00;1.00;;;;;;5098343;28;20080;-82
2022/04/14 07:32:43;;;;;;;31.30;17.50;;;13.30;1.00;;;;;;5097618;28;20051;-78
2022/04/14 07:35:10;;;;;;;30.25;15.32;;;13.70;1.00;;;;;;5091048;28;20044;-83
2022/04/14 07:37:41;;;;;;;28.38;15.98;;;13.90;1.00;;;;;;5087971;28;20032;-85
2022/04/14 07:40:09;;;;;;;34.33;18.08;;;14.10;1.00;;;;;;5085437;28;20492;-83
2022/04/14 07:42:39;;;;;;;36.28;19.35;;;14.30;1.00;;;;;;5086202;28;20071;-84
2022/04/14 07:45:17;;;;;;;26.25;15.50;;;14.30;1.00;;;;;;5086698;28;20063;-84
2022/04/14 07:47:46;;;;;;;25.63;15.63;;;14.40;1.00;;;;;;5086565;28;20117;-84
2022/04/14 07:50:14;;;;;;;32.78;17.92;;;14.50;1.00;;;;;;5087139;28;20044;-83
2022/04/14 07:52:46;;;;;;;28.88;15.32;;;14.90;1.00;;;;;;5087006;28;20044;-84
2022/04/14 07:55:18;;;;;;;26.83;12.18;;;15.10;1.00;;;;;;5086351;28;20118;-85
2022/04/14 07:57:46;;;;;;;24.30;12.88;;;15.40;1.00;;;;;;5084566;28;20067;-84
2022/04/14 08:00:16;;;;;;;21.08;12.32;;;15.60;1.00;;;;;;5085697;28;20056;-85
2022/04/14 08:02:53;;;;;;;22.88;12.93;;;15.60;1.00;;;;;;5089227;28;20048;-85
2022/04/14 08:05:22;;;;;;;21.45;11.93;;;15.50;1.00;;;;;;5088956;28;20048;-84
2022/04/14 08:07:49;;;;;;;27.48;13.60;;;15.60;1.00;;;;;;5084873;28;20075;-83
2022/04/14 08:10:17;;;;;;;23.33;12.77;;;15.70;1.00;;;;;;5084239;28;20037;-85
2022/04/14 08:12:45;;;;;;;26.35;15.63;;;15.90;1.00;;;;;;5085660;28;20488;-84
2022/04/14 08:15:14;;;;;;;36.38;16.65;;;15.80;1.00;;;;;;5083770;28;20049;-84
2022/04/14 08:17:42;;;;;;;24.33;13.65;;;15.80;1.00;;;;;;5086382;28;20036;-84
2022/04/14 08:20:12;;;;;;;24.70;15.32;;;15.70;1.00;;;;;;5085896;28;20496;-82
2022/04/14 08:22:50;;;;;;;34.88;19.30;;;15.90;1.00;;;;;;5087659;28;20044;-82
2022/04/14 08:25:20;;;;;;;24.23;14.07;;;16.30;1.00;;;;;;5087179;28;20045;-83
2022/04/14 08:27:48;;;;;;;36.40;14.85;;;16.50;1.00;;;;;;5086600;28;20037;-82
2022/04/14 08:30:18;;;;;;;25.63;14.63;;;16.80;1.00;;;;;;5086952;28;20044;-81
2022/04/14 08:32:47;;;;;;;26.83;16.30;;;17.10;1.00;;;;;;5090881;28;20119;-81
2022/04/14 08:35:15;;;;;;;25.27;15.95;;;17.40;1.00;;;;;;5088688;28;20100;-82
2022/04/14 08:37:44;;;;;;;34.13;19.15;;;17.50;1.00;;;;;;5086118;28;20095;-84
2022/04/14 08:40:13;;;;;;;31.45;16.50;;;17.30;1.00;;;;;;5086007;28;20055;-83
2022/04/14 08:42:43;;;;;;;32.55;17.90;;;17.30;1.00;;;;;;5085720;28;20067;-84
2022/04/14 08:45:14;;;;;;;28.63;18.38;;;17.50;1.00;;;;;;5088891;28;20377;-82
2022/04/14 08:47:43;;;;;;;35.70;19.92;;;17.40;1.00;;;;;;5098424;28;20044;-81
2022/04/14 08:50:12;;;;;;;28.50;18.70;;;17.40;1.00;;;;;;5092751;28;20044;-82
2022/04/14 08:52:40;;;;;;;34.60;17.48;;;17.50;1.00;;;;;;5097086;28;20044;-84
2022/04/14 08:55:11;;;;;;;31.38;17.27;;;17.70;1.00;;;;;;5094965;28;20059;-79
2022/04/14 08:57:41;;;;;;;28.55;17.13;;;17.90;1.00;;;;;;5102858;28;20047;-81
2022/04/14 09:00:11;;;;;;;40.95;21.85;;;18.20;1.00;;;;;;5097843;28;20041;-81
2022/04/14 09:02:39;;;;;;;34.80;20.13;;;18.50;1.00;;;;;;5089630;28;20074;-81
2022/04/14 09:05:09;;;;;;;41.05;21.48;;;18.70;1.00;;;;;;5090203;28;20044;-82
2022/04/14 09:07:36;;;;;;;39.30;20.60;;;18.70;1.00;;;;;;5091876;28;20127;-81
2022/04/14 09:10:06;;;;;;;31.83;20.05;;;18.80;1.00;;;;;;5090071;28;20476;-82
2022/04/14 09:12:36;;;;;;;37.55;21.75;;;18.90;1.00;;;;;;5092224;28;20383;-81
2022/04/14 09:15:04;;;;;;;39.42;22.38;;;19.10;1.00;;;;;;5091316;28;20055;-79
2022/04/14 09:17:32;;;;;;;28.83;18.10;;;19.10;1.00;;;;;;5096298;28;20050;-81
2022/04/14 09:19:59;;;;;;;29.42;18.98;;;19.00;1.00;;;;;;5098165;28;20448;-81
2022/04/14 09:22:28;;;;;;;28.75;16.95;;;19.20;1.00;;;;;;5087601;28;20037;-81
2022/04/14 09:24:57;;;;;;;32.33;18.92;;;19.40;1.00;;;;;;5093425;28;20055;-82
2022/04/14 09:27:27;;;;;;;28.95;18.83;;;19.60;1.00;;;;;;5090805;28;20059;-82
2022/04/14 09:29:57;;;;;;;27.10;17.73;;;19.70;1.00;;;;;;5082508;28;20514;-79
2022/04/14 09:32:32;;;;;;;31.20;16.35;;;19.80;1.00;;;;;;5081297;28;20127;-81
2022/04/14 09:35:01;;;;;;;23.53;14.50;;;19.80;1.00;;;;;;5082483;28;20048;-80
2022/04/14 09:37:31;;;;;;;27.50;15.45;;;19.60;1.00;;;;;;5082121;28;20044;-80
2022/04/14 09:40:01;;;;;;;41.03;15.25;;;19.60;1.00;;;;;;5082522;28;20047;-80
2022/04/14 09:42:30;;;;;;;23.38;13.88;;;19.70;1.00;;;;;;5080776;28;20045;-81
2022/04/14 09:45:17;;;;;;;22.88;13.70;;;19.80;1.00;;;;;;5082183;28;20044;-79
2022/04/14 09:47:45;;;;;;;24.88;12.63;;;20.00;1.00;;;;;;5079784;28;20055;-80
2022/04/14 09:50:29;;;;;;;16.48;10.35;;;20.20;1.00;;;;;;5081413;28;20044;-82
2022/04/14 09:53:09;;;;;;;19.63;9.70;;;20.40;1.00;;;;;;5079382;28;20130;-82
2022/04/14 09:55:38;;;;;;;16.10;9.93;;;20.40;1.00;;;;;;5093876;28;20083;-80
2022/04/14 09:58:07;;;;;;;15.75;10.35;;;20.40;1.00;;;;;;5093655;28;20052;-79
2022/04/14 10:00:43;;;;;;;15.23;8.80;;;20.50;1.00;;;;;;5094264;28;20044;-81
2022/04/14 10:03:12;;;;;;;13.38;7.88;;;20.60;1.00;;;;;;5094322;28;20111;-81
2022/04/14 10:05:40;;;;;;;13.75;8.10;;;20.60;1.00;;;;;;5090392;28;20044;-81
2022/04/14 10:08:09;;;;;;;13.00;8.25;;;20.60;1.00;;;;;;5081262;28;20055;-81
2022/04/14 10:10:38;;;;;;;19.58;9.77;;;20.70;1.00;;;;;;5081816;28;20494;-81
2022/04/14 10:13:08;;;;;;;12.68;7.32;;;20.80;1.00;;;;;;5082990;28;20091;-80
2022/04/14 10:15:37;;;;;;;9.85;6.80;;;20.80;1.00;;;;;;5091111;28;20048;-79
2022/04/14 10:18:07;;;;;;;12.77;7.65;;;20.80;1.00;;;;;;5096435;28;20029;-79
2022/04/14 10:20:36;;;;;;;13.98;7.18;;;21.00;1.00;;;;;;5092928;28;20044;-80
2022/04/14 10:23:04;;;;;;;13.60;7.50;;;21.20;1.00;;;;;;5086478;28;20128;-80
2022/04/14 10:25:36;;;;;;;13.60;8.35;;;21.30;1.00;;;;;;5082240;28;20045;-80
2022/04/14 10:28:05;;;;;;;10.75;7.47;;;21.30;1.00;;;;;;5081290;28;20044;-79
2022/04/14 10:30:32;;;;;;;11.63;7.22;;;21.30;1.00;;;;;;5078756;28;20044;-78
2022/04/14 10:33:00;;;;;;;13.75;6.85;;;21.30;1.00;;;;;;5086576;28;20040;-80
2022/04/14 10:35:29;;;;;;;9.45;6.40;;;21.50;1.00;;;;;;5084596;28;20053;-80
2022/04/14 10:38:06;;;;;;;15.73;7.32;;;21.50;1.00;;;;;;5087234;28;20037;-80
2022/04/14 10:40:38;;;;;;;13.35;7.50;;;21.50;1.00;;;;;;5085599;28;20028;-80
2022/04/14 10:43:09;;;;;;;14.45;8.52;;;21.60;1.00;;;;;;5089073;28;20048;-79
2022/04/14 10:45:49;;;;;;;12.93;8.15;;;21.60;1.00;;;;;;5087973;28;20123;-80
2022/04/14 10:48:28;;;;;;;10.38;6.90;;;21.50;1.00;;;;;;5090446;28;20028;-80
2022/04/14 10:51:19;;;;;;;10.93;7.07;;;21.50;1.00;;;;;;5089277;28;20040;-81
2022/04/14 10:53:56;;;;;;;13.32;8.27;;;21.50;1.00;;;;;;5086112;28;20044;-80
2022/04/14 10:56:52;;;;;;;13.70;7.15;;;21.60;1.00;;;;;;5077098;28;20053;-81
2022/04/14 10:59:41;;;;;;;12.57;6.63;;;21.70;1.00;;;;;;5068866;28;20041;-80
2022/04/14 11:02:10;;;;;;;12.98;7.85;;;21.70;1.00;;;;;;5090868;28;20051;-82
2022/04/14 11:04:53;;;;;;;10.00;6.72;;;21.70;1.00;;;;;;5092619;28;20037;-81
2022/04/14 11:07:22;;;;;;;13.43;7.18;;;21.80;1.00;;;;;;5086103;28;20037;-81
2022/04/14 11:09:52;;;;;;;11.82;7.78;;;21.90;1.00;;;;;;5081934;28;20063;-81
2022/04/14 11:12:22;;;;;;;12.40;6.10;;;21.90;1.00;;;;;;5080000;28;20519;-80
2022/04/14 11:14:52;;;;;;;14.35;6.10;;;22.00;1.00;;;;;;5079866;28;20048;-80
2022/04/14 11:17:58;;;;;;;38.63;7.03;;;22.00;1.00;;;;;;5080687;28;20071;-80
2022/04/14 11:21:02;;;;;;;10.35;5.85;;;22.00;1.00;;;;;;5073416;28;20068;-80
2022/04/14 11:23:31;;;;;;;11.35;5.57;;;21.90;1.00;;;;;;5078807;28;20043;-79
2022/04/14 11:26:10;;;;;;;12.85;5.53;;;21.80;1.00;;;;;;5083939;28;20040;-81
2022/04/14 11:28:46;;;;;;;15.68;6.88;;;21.80;1.00;;;;;;5084643;28;20037;-80
2022/04/14 11:31:24;;;;;;;8.90;5.93;;;21.90;1.00;;;;;;5066370;28;20041;-80
2022/04/14 11:33:54;;;;;;;9.48;5.20;;;21.90;1.00;;;;;;5069900;28;20044;-81
2022/04/14 11:36:25;;;;;;;6.78;4.70;;;21.90;1.00;;;;;;5076343;22;20056;-78
2022/04/14 11:38:58;;;;;;;8.52;5.28;;;21.90;1.00;;;;;;5048767;28;20158;-77
2022/04/14 11:41:35;;;;;;;15.98;6.78;;;21.90;1.00;;;;;;5036732;28;20049;-76
2022/04/14 11:44:04;;;;;;;10.48;5.72;;;22.00;1.00;;;;;;5064058;28;20096;-77
2022/04/14 11:46:33;;;;;;;9.05;5.90;;;22.00;1.00;;;;;;5058732;28;20394;-77
2022/04/14 11:49:01;;;;;;;8.32;5.72;;;22.10;1.00;;;;;;5055363;28;20049;-74
2022/04/14 11:51:29;;;;;;;12.80;5.95;;;22.20;1.00;;;;;;5036326;28;20048;-75
2022/04/14 11:53:58;;;;;;;7.45;5.28;;;22.10;1.00;;;;;;5054399;28;20396;-75
2022/04/14 11:56:26;;;;;;;12.00;6.82;;;22.10;1.00;;;;;;5054826;28;20037;-75
2022/04/14 11:58:55;;;;;;;13.65;5.68;;;22.10;1.00;;;;;;5037745;28;20047;-76
2022/04/14 12:01:23;;;;;;;7.35;5.00;;;22.10;1.00;;;;;;5058078;28;20048;-78
2022/04/14 12:03:50;;;;;;;8.75;4.57;;;22.10;1.00;;;;;;5066199;28;20053;-76
2022/04/14 12:06:18;;;;;;;7.15;5.05;;;22.20;1.00;;;;;;5058636;28;20548;-77
2022/04/14 12:08:59;;;;;;;8.88;4.30;;;22.30;1.00;;;;;;5038875;28;20064;-76
2022/04/14 12:11:30;;;;;;;7.13;4.22;;;22.30;1.00;;;;;;5054931;28;20053;-76
2022/04/14 12:13:59;;;;;;;11.15;4.63;;;22.50;1.00;;;;;;5053977;28;20045;-76
2022/04/14 12:16:33;;;;;;;6.80;4.03;;;22.50;1.00;;;;;;5022841;28;20052;-76
2022/04/14 12:19:02;;;;;;;7.78;4.43;;;22.40;1.00;;;;;;5054527;28;20044;-76
2022/04/14 12:21:30;;;;;;;10.18;5.13;;;22.60;1.00;;;;;;5041236;28;20409;-77
2022/04/14 12:24:00;;;;;;;7.20;4.90;;;22.70;1.00;;;;;;5058963;28;20068;-77
2022/04/14 12:26:29;;;;;;;7.20;4.60;;;22.90;1.00;;;;;;5058517;28;20417;-76
2022/04/14 12:28:56;;;;;;;7.22;4.10;;;22.90;1.00;;;;;;5061328;28;20041;-77
2022/04/14 12:31:28;;;;;;;10.90;4.55;;;22.90;1.00;;;;;;5044108;28;20051;-77
2022/04/14 12:33:57;;;;;;;7.53;4.30;;;22.80;1.00;;;;;;5043456;28;20048;-76
2022/04/14 12:36:34;;;;;;;7.45;4.85;;;22.80;1.00;;;;;;5040280;28;20412;-77
2022/04/14 12:39:06;;;;;;;11.60;5.30;;;22.80;1.00;;;;;;5040667;28;20060;-77
2022/04/14 12:41:37;;;;;;;13.05;4.95;;;22.80;1.00;;;;;;5043032;28;20049;-76
2022/04/14 12:44:06;;;;;;;10.95;4.68;;;23.00;1.00;;;;;;5024573;28;20045;-76
2022/04/14 12:46:38;;;;;;;12.88;5.80;;;23.00;1.00;;;;;;5031576;28;20492;-76
2022/04/14 12:49:08;;;;;;;10.30;5.43;;;23.10;1.00;;;;;;5041821;28;20041;-76
2022/04/14 12:51:38;;;;;;;11.70;4.38;;;23.30;1.00;;;;;;5041446;28;20069;-76
2022/04/14 12:54:08;;;;;;;7.60;4.50;;;23.30;1.00;;;;;;5041736;28;20056;-77